Time;durP1;ratioP1;P1;durP2;ratioP2;P2;SDS_P1;SDS_P2;PMS_P1;PMS_P2;Temp;Humidity;BMP_temperature;BMP_pressure;BME280_temperature;BME280_humidity;BME280_pressure;Samples;Min_cycle;Max_cycle;Signal;HPM_P1;HPM_P2
2022/10/16 00:00:46;;;;;;;5.57;3.40;;;13.00;99.90;;;;;;5055245;28;20708;-54
2022/10/16 00:03:12;;;;;;;6.57;3.40;;;13.00;99.90;;;;;;5055189;28;20243;-55
2022/10/16 00:05:41;;;;;;;4.30;3.27;;;13.00;99.90;;;;;;5055466;28;20240;-57
2022/10/16 00:08:08;;;;;;;8.93;3.37;;;12.90;99.90;;;;;;5055292;28;20297;-56
2022/10/16 00:10:35;;;;;;;8.57;3.67;;;12.90;99.90;;;;;;5054953;28;20225;-56
2022/10/16 00:13:04;;;;;;;7.07;3.20;;;12.90;99.90;;;;;;5055157;28;20275;-56
2022/10/16 00:15:31;;;;;;;6.03;3.60;;;12.90;99.90;;;;;;5055112;28;20209;-55
2022/10/16 00:17:57;;;;;;;5.43;2.83;;;12.90;99.90;;;;;;5054929;28;20672;-56
2022/10/16 00:20:24;;;;;;;5.83;3.20;;;12.90;99.90;;;;;;5054902;28;20283;-51
2022/10/16 00:22:51;;;;;;;4.53;3.00;;;12.90;99.90;;;;;;5054949;28;20209;-55
2022/10/16 00:25:18;;;;;;;8.10;3.27;;;12.90;99.90;;;;;;5054483;28;20267;-54
2022/10/16 00:27:44;;;;;;;7.60;3.20;;;12.90;99.90;;;;;;5054812;28;20209;-56
2022/10/16 00:30:12;;;;;;;3.63;3.00;;;12.90;99.90;;;;;;5054669;28;20237;-55
2022/10/16 00:32:39;;;;;;;4.07;2.60;;;13.00;99.90;;;;;;5054778;28;20761;-54
2022/10/16 00:35:06;;;;;;;6.93;3.00;;;13.00;99.90;;;;;;5054715;28;20264;-53
2022/10/16 00:37:33;;;;;;;4.80;2.60;;;13.00;99.90;;;;;;5054704;28;20672;-53
2022/10/16 00:40:00;;;;;;;6.20;2.80;;;13.00;99.90;;;;;;5054276;28;20643;-56
2022/10/16 00:42:26;;;;;;;6.30;3.03;;;13.00;99.90;;;;;;5054926;28;20699;-55
2022/10/16 00:44:56;;;;;;;4.67;3.10;;;13.00;99.90;;;;;;5054561;28;20300;-54
2022/10/16 00:47:29;;;;;;;6.53;2.20;;;13.00;99.90;;;;;;5054388;28;20205;-54
2022/10/16 00:49:59;;;;;;;5.80;2.73;;;13.10;99.90;;;;;;5054558;28;20259;-55
2022/10/16 00:52:26;;;;;;;7.60;2.30;;;13.00;99.90;;;;;;5054293;28;20230;-53
2022/10/16 00:54:54;;;;;;;4.90;2.37;;;13.10;99.90;;;;;;5054537;28;20263;-53
2022/10/16 00:57:21;;;;;;;3.87;2.30;;;13.00;99.90;;;;;;5054259;28;20214;-55
2022/10/16 00:59:48;;;;;;;6.13;2.40;;;13.00;99.90;;;;;;5054300;28;20225;-55
2022/10/16 01:02:16;;;;;;;5.70;2.50;;;13.00;99.90;;;;;;5053832;28;20208;-56
2022/10/16 01:04:48;;;;;;;5.03;2.43;;;13.00;99.90;;;;;;5054045;28;20259;-54
2022/10/16 01:07:25;;;;;;;6.20;2.30;;;13.00;99.90;;;;;;5054214;28;20305;-54
2022/10/16 01:10:02;;;;;;;3.90;2.57;;;13.00;99.90;;;;;;5054224;28;20229;-53
2022/10/16 01:12:39;;;;;;;7.97;2.13;;;13.00;99.90;;;;;;5054077;28;20236;-55
2022/10/16 01:15:12;;;;;;;6.33;2.10;;;13.00;99.90;;;;;;5053892;28;20630;-54
2022/10/16 01:17:43;;;;;;;5.27;2.23;;;13.00;99.90;;;;;;5054043;28;20255;-54
2022/10/16 01:20:19;;;;;;;4.03;2.33;;;13.00;99.90;;;;;;5054090;28;20236;-54
2022/10/16 01:23:25;;;;;;;4.10;2.30;;;13.00;99.90;;;;;;5054044;28;20205;-53
2022/10/16 01:26:16;;;;;;;3.50;2.33;;;12.90;99.90;;;;;;4992094;28;20218;-55
2022/10/16 01:28:52;;;;;;;4.60;2.33;;;12.90;99.90;;;;;;4991772;28;20293;-54
2022/10/16 01:31:22;;;;;;;5.10;2.40;;;12.90;99.90;;;;;;5032708;28;20213;-53
2022/10/16 01:33:55;;;;;;;6.83;2.20;;;12.90;99.90;;;;;;5053824;28;20216;-56
2022/10/16 01:36:28;;;;;;;3.87;2.13;;;12.90;99.90;;;;;;5053604;28;20209;-55
2022/10/16 01:39:01;;;;;;;3.93;1.93;;;12.90;99.90;;;;;;5053887;28;20229;-56
2022/10/16 01:41:32;;;;;;;2.57;2.20;;;12.80;99.90;;;;;;5053597;28;20260;-54
2022/10/16 01:44:05;;;;;;;4.07;2.33;;;12.80;99.90;;;;;;5053523;28;20209;-54
2022/10/16 01:46:33;;;;;;;2.83;2.27;;;12.80;99.90;;;;;;5053176;28;20209;-53
2022/10/16 01:49:02;;;;;;;3.23;2.20;;;12.80;99.90;;;;;;5053370;28;20789;-56
2022/10/16 01:51:30;;;;;;;3.17;2.13;;;12.80;99.90;;;;;;5053559;28;20251;-56
2022/10/16 01:53:59;;;;;;;3.77;2.23;;;12.80;99.90;;;;;;5053279;28;20213;-54
2022/10/16 01:56:27;;;;;;;4.33;2.30;;;12.80;99.90;;;;;;5053065;28;20209;-51
2022/10/16 01:58:58;;;;;;;4.83;2.20;;;12.80;99.90;;;;;;5053208;28;20229;-54
2022/10/16 02:01:30;;;;;;;3.07;2.30;;;12.80;99.90;;;;;;5053308;28;20284;-54
2022/10/16 02:03:59;;;;;;;3.97;2.20;;;12.80;99.90;;;;;;5053306;28;20209;-50
2022/10/16 02:06:26;;;;;;;5.00;2.20;;;12.80;99.90;;;;;;5052966;28;20261;-51
2022/10/16 02:08:54;;;;;;;3.67;2.73;;;12.80;99.90;;;;;;5052953;28;20715;-52
2022/10/16 02:11:21;;;;;;;3.53;2.10;;;12.80;99.90;;;;;;5052835;28;20202;-48
2022/10/16 02:13:51;;;;;;;3.73;2.43;;;12.80;99.90;;;;;;5051915;28;20279;-52
2022/10/16 02:16:17;;;;;;;5.73;2.50;;;12.90;99.90;;;;;;5052811;28;20267;-50
2022/10/16 02:18:46;;;;;;;2.70;2.20;;;12.90;99.90;;;;;;5052854;28;20720;-54
2022/10/16 02:21:20;;;;;;;3.57;2.33;;;12.90;99.90;;;;;;5052788;28;20206;-52
2022/10/16 02:23:52;;;;;;;3.53;2.23;;;12.90;99.90;;;;;;5052925;28;20574;-51
2022/10/16 02:26:26;;;;;;;2.57;2.27;;;12.90;99.90;;;;;;5052545;28;20213;-53
2022/10/16 02:29:00;;;;;;;6.50;2.30;;;12.90;99.90;;;;;;5052736;28;20291;-52
2022/10/16 02:31:30;;;;;;;2.20;2.00;;;12.90;99.90;;;;;;5052669;28;20209;-51
2022/10/16 02:34:00;;;;;;;3.07;2.63;;;12.90;99.90;;;;;;5052470;28;20619;-53
2022/10/16 02:36:28;;;;;;;4.23;1.80;;;12.90;99.90;;;;;;5052219;28;20216;-49
2022/10/16 02:38:55;;;;;;;5.00;2.30;;;12.90;99.90;;;;;;5052513;28;20723;-56
2022/10/16 02:41:23;;;;;;;2.63;1.83;;;12.80;99.90;;;;;;5052091;28;20626;-53
2022/10/16 02:43:49;;;;;;;4.10;2.10;;;12.80;99.90;;;;;;5052320;28;20213;-54
2022/10/16 02:46:17;;;;;;;2.83;1.80;;;12.90;99.90;;;;;;5052182;28;20212;-56
2022/10/16 02:48:44;;;;;;;3.30;1.70;;;12.90;99.90;;;;;;5052062;28;20221;-55
2022/10/16 02:51:12;;;;;;;5.30;1.87;;;12.90;99.90;;;;;;5052248;28;20209;-56
2022/10/16 02:53:39;;;;;;;3.53;1.70;;;12.90;99.90;;;;;;5052054;28;20229;-56
2022/10/16 02:56:06;;;;;;;2.87;1.70;;;12.90;99.90;;;;;;5052122;28;20627;-52
2022/10/16 02:58:32;;;;;;;2.20;1.77;;;12.90;99.90;;;;;;5052137;28;20209;-54
2022/10/16 03:00:59;;;;;;;2.30;1.63;;;12.90;99.90;;;;;;5052526;28;20209;-55
2022/10/16 03:03:25;;;;;;;3.67;1.70;;;13.00;99.90;;;;;;5052258;28;20209;-53
2022/10/16 03:05:52;;;;;;;3.87;1.87;;;13.00;99.90;;;;;;5052257;28;20236;-51
2022/10/16 03:08:23;;;;;;;4.17;1.70;;;13.00;99.90;;;;;;5052049;28;20270;-54
2022/10/16 03:10:50;;;;;;;3.27;1.60;;;13.10;99.90;;;;;;5051967;28;20213;-53
2022/10/16 03:13:16;;;;;;;4.13;1.43;;;13.10;99.90;;;;;;5051731;28;20279;-51
2022/10/16 03:15:44;;;;;;;2.03;1.53;;;13.20;99.90;;;;;;5051906;28;20206;-54
2022/10/16 03:18:10;;;;;;;2.43;1.30;;;13.20;99.90;;;;;;5051780;28;20625;-51
2022/10/16 03:20:37;;;;;;;2.87;1.20;;;13.20;99.90;;;;;;5051914;28;20794;-54
2022/10/16 03:23:04;;;;;;;2.07;1.33;;;13.20;99.90;;;;;;5051478;28;20202;-51
2022/10/16 03:25:32;;;;;;;1.40;1.30;;;13.20;99.90;;;;;;5051705;28;20571;-51
2022/10/16 03:27:58;;;;;;;5.17;1.60;;;13.20;99.90;;;;;;5051534;28;20206;-53
2022/10/16 03:30:25;;;;;;;1.70;1.17;;;13.20;99.90;;;;;;5051726;28;20260;-51
2022/10/16 03:32:53;;;;;;;2.47;1.20;;;13.20;99.90;;;;;;5051683;28;20229;-52
2022/10/16 03:35:20;;;;;;;2.60;1.20;;;13.20;99.90;;;;;;5052104;28;20239;-54
2022/10/16 03:37:47;;;;;;;3.10;1.10;;;13.20;99.90;;;;;;5051490;28;20205;-49
2022/10/16 03:40:13;;;;;;;5.33;1.27;;;13.10;99.90;;;;;;5051448;28;20232;-55
2022/10/16 03:42:43;;;;;;;1.23;1.10;;;13.10;99.90;;;;;;5051746;28;20205;-54
2022/10/16 03:45:11;;;;;;;4.03;1.43;;;13.20;99.90;;;;;;5051508;28;20255;-54
2022/10/16 03:47:38;;;;;;;3.30;1.27;;;13.10;99.90;;;;;;5051326;28;20648;-52
2022/10/16 03:50:05;;;;;;;1.30;1.20;;;13.10;99.90;;;;;;5051736;28;20225;-54
2022/10/16 03:52:32;;;;;;;1.50;1.40;;;13.10;99.90;;;;;;5051561;28;20225;-54
2022/10/16 03:54:59;;;;;;;2.70;1.23;;;13.10;99.90;;;;;;5051405;28;20256;-53
2022/10/16 03:57:26;;;;;;;1.80;1.27;;;13.10;99.90;;;;;;5051297;28;20236;-53
2022/10/16 03:59:54;;;;;;;4.60;1.30;;;13.10;99.90;;;;;;5051603;28;20242;-56
2022/10/16 04:02:20;;;;;;;3.13;1.37;;;13.00;99.90;;;;;;5051497;28;20210;-53
2022/10/16 04:04:47;;;;;;;1.90;1.57;;;13.00;99.90;;;;;;5051457;28;20665;-53
2022/10/16 04:07:14;;;;;;;5.30;1.50;;;12.90;99.90;;;;;;5051221;28;20213;-55
2022/10/16 04:09:41;;;;;;;3.37;1.27;;;12.90;99.90;;;;;;5051197;28;20294;-56
2022/10/16 04:12:08;;;;;;;1.33;1.23;;;12.80;99.90;;;;;;5051270;28;20300;-53
2022/10/16 04:14:34;;;;;;;3.77;1.20;;;12.80;99.90;;;;;;5051390;28;20217;-53
2022/10/16 04:17:02;;;;;;;2.40;1.27;;;12.80;99.90;;;;;;5051361;28;20209;-52
2022/10/16 04:19:29;;;;;;;1.57;1.17;;;12.80;99.90;;;;;;5051428;28;20225;-50
2022/10/16 04:21:56;;;;;;;6.70;1.50;;;12.80;99.90;;;;;;5051372;28;20206;-51
2022/10/16 04:24:22;;;;;;;6.70;1.50;;;12.80;99.90;;;;;;5051144;28;20206;-50
2022/10/16 04:26:49;;;;;;;2.93;1.40;;;12.80;99.90;;;;;;5050778;28;20283;-52
2022/10/16 04:29:16;;;;;;;4.13;1.30;;;12.70;99.90;;;;;;5051134;28;20241;-52
2022/10/16 04:31:42;;;;;;;1.53;1.20;;;12.70;99.90;;;;;;5050191;28;20209;-54
2022/10/16 04:34:10;;;;;;;1.40;1.30;;;12.60;99.90;;;;;;5050863;28;20226;-49
2022/10/16 04:36:37;;;;;;;1.77;1.30;;;12.60;99.90;;;;;;5052575;28;20202;-53
2022/10/16 04:39:04;;;;;;;2.03;1.50;;;12.60;99.90;;;;;;5054209;28;20282;-52
2022/10/16 04:41:30;;;;;;;3.43;1.20;;;12.60;99.90;;;;;;5054731;28;20205;-55
2022/10/16 04:43:57;;;;;;;2.80;1.13;;;12.60;99.90;;;;;;5054741;28;20259;-53
2022/10/16 04:46:24;;;;;;;2.27;1.10;;;12.60;99.90;;;;;;5054561;28;20213;-50
2022/10/16 04:48:50;;;;;;;2.57;1.53;;;12.60;99.90;;;;;;5054358;28;20233;-54
2022/10/16 04:51:19;;;;;;;1.93;1.30;;;12.60;99.90;;;;;;5054549;28;20275;-55
2022/10/16 04:53:45;;;;;;;7.43;1.70;;;12.60;99.90;;;;;;5054171;28;20221;-51
2022/10/16 04:56:12;;;;;;;1.37;1.20;;;12.60;99.90;;;;;;5054208;28;20217;-51
2022/10/16 04:58:38;;;;;;;3.57;1.10;;;12.60;99.90;;;;;;5054410;28;20207;-54
2022/10/16 05:01:05;;;;;;;1.70;1.37;;;12.60;99.90;;;;;;5054657;28;20263;-51
2022/10/16 05:03:32;;;;;;;2.03;1.30;;;12.60;99.90;;;;;;5054154;28;20245;-54
2022/10/16 05:05:58;;;;;;;5.07;1.63;;;12.60;99.90;;;;;;5054031;28;20205;-49
2022/10/16 05:08:27;;;;;;;1.53;1.43;;;12.60;99.90;;;;;;5053956;28;20209;-52
2022/10/16 05:10:53;;;;;;;2.90;1.40;;;12.60;99.90;;;;;;5054275;28;20256;-52
2022/10/16 05:13:20;;;;;;;2.13;1.50;;;12.70;99.90;;;;;;5054214;28;20221;-55
2022/10/16 05:15:48;;;;;;;4.47;1.50;;;12.80;99.90;;;;;;5054006;28;20206;-52
2022/10/16 05:18:14;;;;;;;2.77;1.40;;;12.80;99.90;;;;;;5053607;28;20700;-54
2022/10/16 05:20:41;;;;;;;6.37;1.47;;;12.80;99.90;;;;;;5053803;28;20229;-55
2022/10/16 05:23:09;;;;;;;3.87;1.20;;;12.80;99.90;;;;;;5053808;28;20224;-54
2022/10/16 05:25:37;;;;;;;2.23;1.20;;;12.80;99.90;;;;;;5053834;28;20205;-53
2022/10/16 05:28:04;;;;;;;4.63;1.50;;;12.80;99.90;;;;;;5053602;28;20213;-55
2022/10/16 05:30:31;;;;;;;1.57;1.30;;;12.80;99.90;;;;;;5053552;28;20245;-53
2022/10/16 05:32:58;;;;;;;2.23;1.50;;;12.80;99.90;;;;;;5053762;28;20279;-53
2022/10/16 05:35:24;;;;;;;1.70;1.50;;;12.80;99.90;;;;;;5053619;28;20213;-51
2022/10/16 05:37:51;;;;;;;2.30;1.60;;;12.70;99.90;;;;;;5053220;28;20206;-53
2022/10/16 05:40:18;;;;;;;1.97;1.40;;;12.70;99.90;;;;;;5053335;28;20263;-49
2022/10/16 05:42:46;;;;;;;1.70;1.43;;;12.70;99.90;;;;;;5053885;28;20213;-52
2022/10/16 05:45:12;;;;;;;2.97;1.37;;;12.70;99.90;;;;;;5053568;28;20625;-52
2022/10/16 05:47:40;;;;;;;2.73;1.30;;;12.70;99.90;;;;;;5053157;28;20214;-54
2022/10/16 05:50:07;;;;;;;1.93;1.63;;;12.70;99.90;;;;;;5053299;28;20640;-55
2022/10/16 05:52:33;;;;;;;2.37;1.70;;;12.70;99.90;;;;;;5053590;28;20287;-54
2022/10/16 05:55:00;;;;;;;1.83;1.27;;;12.70;99.90;;;;;;5053199;28;20757;-56
2022/10/16 05:57:27;;;;;;;1.50;1.40;;;12.70;99.90;;;;;;5053255;28;20252;-53
2022/10/16 05:59:55;;;;;;;4.10;1.60;;;12.70;99.90;;;;;;5053150;28;20233;-52
2022/10/16 06:02:22;;;;;;;2.13;1.70;;;12.70;99.90;;;;;;5053194;28;20252;-56
2022/10/16 06:04:48;;;;;;;3.37;1.40;;;12.70;99.90;;;;;;5052942;28;20267;-54
2022/10/16 06:07:15;;;;;;;2.57;1.40;;;12.70;99.90;;;;;;5052827;28;20268;-56
2022/10/16 06:09:42;;;;;;;2.57;1.33;;;12.70;99.90;;;;;;5052979;28;20229;-52
2022/10/16 06:12:09;;;;;;;1.63;1.53;;;12.70;99.90;;;;;;5053119;28;20213;-56
2022/10/16 06:14:35;;;;;;;2.40;1.63;;;12.70;99.90;;;;;;5053033;28;20226;-54
2022/10/16 06:17:03;;;;;;;5.00;1.60;;;12.70;99.90;;;;;;5052578;28;20213;-55
2022/10/16 06:19:31;;;;;;;3.50;1.83;;;12.70;99.90;;;;;;5052830;28;20277;-52
2022/10/16 06:21:58;;;;;;;3.70;1.80;;;12.70;99.90;;;;;;5053125;28;20248;-55
2022/10/16 06:24:25;;;;;;;2.00;1.50;;;12.70;99.90;;;;;;5052787;28;20294;-55
2022/10/16 06:26:51;;;;;;;5.20;1.50;;;12.70;99.90;;;;;;5052553;28;20251;-52
2022/10/16 06:29:18;;;;;;;2.17;1.30;;;12.70;99.90;;;;;;5052567;28;20286;-53
2022/10/16 06:31:45;;;;;;;2.63;1.50;;;12.70;99.90;;;;;;5052646;28;20205;-50
2022/10/16 06:34:13;;;;;;;3.83;1.73;;;12.60;99.90;;;;;;5052563;28;20229;-50
2022/10/16 06:36:40;;;;;;;2.23;1.70;;;12.60;99.90;;;;;;5052455;28;20267;-48
2022/10/16 06:39:07;;;;;;;2.10;1.90;;;12.60;99.90;;;;;;5052481;28;20225;-52
2022/10/16 06:41:34;;;;;;;3.50;2.20;;;12.70;99.90;;;;;;5052618;28;20206;-50
2022/10/16 06:44:01;;;;;;;2.87;1.90;;;12.70;99.90;;;;;;5052578;28;20267;-51
2022/10/16 06:46:28;;;;;;;2.10;1.90;;;12.80;99.90;;;;;;5052088;28;20206;-49
2022/10/16 06:48:55;;;;;;;3.63;1.97;;;12.90;99.90;;;;;;5052438;28;20226;-54
2022/10/16 06:51:24;;;;;;;2.13;1.40;;;12.90;99.90;;;;;;5052131;28;20627;-49
2022/10/16 06:53:53;;;;;;;2.63;1.63;;;12.90;99.90;;;;;;5052127;28;20621;-50
2022/10/16 06:56:21;;;;;;;3.27;1.50;;;13.00;99.90;;;;;;5051873;28;20255;-49
2022/10/16 06:58:48;;;;;;;4.10;1.43;;;13.00;99.90;;;;;;5051685;28;20225;-51
2022/10/16 07:01:16;;;;;;;3.83;1.70;;;13.10;99.90;;;;;;5052030;28;20209;-50
2022/10/16 07:03:45;;;;;;;4.60;1.57;;;13.10;99.90;;;;;;5051956;28;20255;-49
2022/10/16 07:06:13;;;;;;;2.30;1.80;;;13.10;99.90;;;;;;5051975;28;20217;-52
2022/10/16 07:08:44;;;;;;;1.73;1.33;;;13.20;99.90;;;;;;5052009;28;20699;-54
2022/10/16 07:11:13;;;;;;;4.93;1.83;;;13.20;99.90;;;;;;5051665;28;20672;-53
2022/10/16 07:13:42;;;;;;;4.30;1.70;;;13.30;99.90;;;;;;5051580;28;20225;-53
2022/10/16 07:16:11;;;;;;;2.70;1.70;;;13.30;99.90;;;;;;5051612;28;20206;-52
2022/10/16 07:18:40;;;;;;;4.37;1.97;;;13.30;99.90;;;;;;5051982;28;20206;-54
2022/10/16 07:21:07;;;;;;;4.00;1.63;;;13.40;99.90;;;;;;5040431;28;20707;-64
2022/10/16 07:23:34;;;;;;;2.27;1.60;;;13.40;99.90;;;;;;5049919;28;20201;-62
2022/10/16 07:26:03;;;;;;;2.07;1.60;;;13.40;99.90;;;;;;5050944;28;20209;-64
2022/10/16 07:28:31;;;;;;;3.43;1.63;;;13.40;99.90;;;;;;5050167;28;20210;-62
2022/10/16 07:31:02;;;;;;;1.80;1.37;;;13.40;99.90;;;;;;5051281;28;20243;-62
2022/10/16 07:33:29;;;;;;;2.97;1.53;;;13.40;99.90;;;;;;5051045;28;20720;-62
2022/10/16 07:35:56;;;;;;;3.10;1.50;;;13.30;99.90;;;;;;5051178;28;20871;-62
2022/10/16 07:38:23;;;;;;;1.90;1.70;;;13.30;99.90;;;;;;5051762;28;20710;-62
2022/10/16 07:40:58;;;;;;;6.47;2.00;;;13.30;99.90;;;;;;5051498;28;20275;-60
2022/10/16 07:43:26;;;;;;;3.93;1.80;;;13.30;99.90;;;;;;5051438;28;20296;-60
2022/10/16 07:45:53;;;;;;;3.67;1.90;;;13.30;99.90;;;;;;5051591;28;20213;-59
2022/10/16 07:48:20;;;;;;;2.17;1.77;;;13.30;99.90;;;;;;5051277;28;20259;-60
2022/10/16 07:50:47;;;;;;;2.83;1.40;;;13.50;99.90;;;;;;5051471;28;20229;-60
2022/10/16 07:53:14;;;;;;;2.60;1.57;;;13.60;99.90;;;;;;5050597;28;20210;-59
2022/10/16 07:55:41;;;;;;;7.43;1.40;;;13.70;99.90;;;;;;5051212;28;20295;-60
2022/10/16 07:58:08;;;;;;;2.13;1.83;;;13.80;99.90;;;;;;5051107;28;20288;-60
2022/10/16 08:00:37;;;;;;;4.20;1.70;;;13.90;99.90;;;;;;5051119;28;20226;-64
2022/10/16 08:03:05;;;;;;;6.07;1.50;;;14.10;99.90;;;;;;5050856;28;20214;-62
2022/10/16 08:05:34;;;;;;;2.33;1.63;;;14.20;99.90;;;;;;5050917;28;20297;-62
2022/10/16 08:08:01;;;;;;;4.03;1.60;;;14.30;99.90;;;;;;5051025;28;20292;-63
2022/10/16 08:10:29;;;;;;;3.13;1.40;;;14.50;99.90;;;;;;5051135;28;20598;-62
2022/10/16 08:12:56;;;;;;;1.40;1.30;;;14.50;99.90;;;;;;5054662;28;20235;-64
2022/10/16 08:15:23;;;;;;;2.03;1.30;;;14.60;99.90;;;;;;5054814;28;20232;-63
2022/10/16 08:17:57;;;;;;;2.60;1.47;;;14.70;99.90;;;;;;5054551;28;20206;-62
2022/10/16 08:20:24;;;;;;;2.17;1.50;;;14.80;99.90;;;;;;5053128;28;20731;-60
2022/10/16 08:22:51;;;;;;;2.17;1.30;;;14.90;99.90;;;;;;5053498;28;20213;-61
2022/10/16 08:25:17;;;;;;;2.33;1.27;;;14.90;99.90;;;;;;5054710;28;20209;-61
2022/10/16 08:27:44;;;;;;;2.90;1.17;;;15.00;99.90;;;;;;5054424;28;20209;-61
2022/10/16 08:30:11;;;;;;;1.93;1.17;;;15.10;99.90;;;;;;5054374;28;20238;-60
2022/10/16 08:32:38;;;;;;;8.57;4.17;;;15.10;99.90;;;;;;5054161;28;20201;-63
2022/10/16 08:35:07;;;;;;;2.50;1.00;;;15.10;99.90;;;;;;5054331;28;20225;-62
2022/10/16 08:37:33;;;;;;;1.67;1.20;;;15.20;99.90;;;;;;5054451;28;20210;-62
2022/10/16 08:40:00;;;;;;;1.83;1.07;;;15.20;99.90;;;;;;5053080;28;20707;-64
2022/10/16 08:42:40;;;;;;;3.07;0.87;;;15.30;99.90;;;;;;5053361;28;20279;-60
2022/10/16 08:45:20;;;;;;;3.00;0.90;;;15.40;99.90;;;;;;5054363;28;20567;-60
2022/10/16 08:47:51;;;;;;;6.80;1.13;;;15.40;99.90;;;;;;5054311;28;20263;-61
2022/10/16 08:50:24;;;;;;;2.10;0.83;;;15.40;99.90;;;;;;5054118;28;20641;-60
2022/10/16 08:52:51;;;;;;;1.40;0.80;;;15.50;99.90;;;;;;5053900;28;20209;-60
2022/10/16 08:55:37;;;;;;;2.17;0.70;;;15.50;99.90;;;;;;5053827;28;20647;-60
2022/10/16 08:58:13;;;;;;;2.77;0.90;;;15.60;99.90;;;;;;5054091;28;20205;-59
2022/10/16 09:00:40;;;;;;;3.90;0.83;;;15.70;99.90;;;;;;5053657;28;20283;-60
2022/10/16 09:03:14;;;;;;;3.87;0.90;;;15.70;99.90;;;;;;5052507;28;20209;-61
2022/10/16 09:06:11;;;;;;;1.47;0.77;;;15.80;99.90;;;;;;5053939;28;20255;-61
2022/10/16 09:08:47;;;;;;;2.97;0.60;;;15.90;99.90;;;;;;5054109;28;20201;-64
2022/10/16 09:11:23;;;;;;;7.53;1.27;;;15.90;99.90;;;;;;5046604;28;20290;-59
2022/10/16 09:13:58;;;;;;;4.80;1.10;;;15.90;99.90;;;;;;5053397;28;20210;-59
2022/10/16 09:16:28;;;;;;;2.73;1.00;;;16.00;99.90;;;;;;5053532;28;20231;-59
2022/10/16 09:19:01;;;;;;;1.77;0.67;;;16.00;99.90;;;;;;5053722;28;20229;-58
2022/10/16 09:21:31;;;;;;;2.43;0.90;;;16.00;99.90;;;;;;5053260;28;20583;-63
2022/10/16 09:24:05;;;;;;;1.93;1.00;;;16.00;99.90;;;;;;5053344;28;20206;-65
2022/10/16 09:26:32;;;;;;;3.53;0.93;;;16.10;99.90;;;;;;5043578;28;20218;-60
2022/10/16 09:28:59;;;;;;;1.70;0.73;;;16.10;99.90;;;;;;5046952;28;20690;-61
2022/10/16 09:31:25;;;;;;;3.60;1.03;;;16.10;99.90;;;;;;5053380;28;20205;-60
2022/10/16 09:33:59;;;;;;;1.67;0.80;;;16.10;99.90;;;;;;5053152;28;20213;-60
2022/10/16 09:36:27;;;;;;;4.57;0.80;;;16.20;99.90;;;;;;5053170;28;20668;-60
2022/10/16 09:39:05;;;;;;;2.80;0.90;;;16.30;99.90;;;;;;5053245;28;20226;-60
2022/10/16 09:41:35;;;;;;;3.47;0.97;;;16.30;99.90;;;;;;5053387;28;20762;-60
2022/10/16 09:44:05;;;;;;;3.43;1.10;;;16.40;99.90;;;;;;5049288;28;20209;-61
2022/10/16 09:46:33;;;;;;;1.87;0.70;;;16.40;99.90;;;;;;5052933;28;20205;-60
2022/10/16 09:49:02;;;;;;;3.67;0.87;;;16.50;99.90;;;;;;5052950;28;20229;-60
2022/10/16 09:51:31;;;;;;;0.90;0.70;;;16.50;99.90;;;;;;5052471;28;20206;-62
2022/10/16 09:54:00;;;;;;;2.60;1.00;;;16.40;99.90;;;;;;5052466;28;20609;-59
2022/10/16 09:56:32;;;;;;;1.33;0.60;;;16.30;99.90;;;;;;5052792;28;20676;-59
2022/10/16 09:59:01;;;;;;;0.90;0.57;;;16.50;99.90;;;;;;5052653;28;20268;-59
2022/10/16 10:01:31;;;;;;;3.47;1.00;;;16.50;99.90;;;;;;5053059;28;20213;-59
2022/10/16 10:04:02;;;;;;;5.43;1.47;;;16.70;99.90;;;;;;5052427;28;20205;-59
2022/10/16 10:06:32;;;;;;;2.87;1.07;;;16.90;99.90;;;;;;5052491;28;20206;-58
2022/10/16 10:09:02;;;;;;;5.73;2.00;;;16.90;99.90;;;;;;5053079;28;20233;-59
2022/10/16 10:11:46;;;;;;;5.40;1.30;;;16.90;99.90;;;;;;5052561;28;20283;-61
2022/10/16 10:14:20;;;;;;;0.83;0.70;;;16.90;99.90;;;;;;5052421;28;20209;-59
2022/10/16 10:16:48;;;;;;;1.50;0.70;;;17.00;99.90;;;;;;5051968;28;20274;-59
2022/10/16 10:19:17;;;;;;;2.67;0.50;;;17.10;99.90;;;;;;5053298;28;20229;-60
2022/10/16 10:21:44;;;;;;;3.70;0.93;;;17.10;99.90;;;;;;5052816;28;20669;-60
2022/10/16 10:24:13;;;;;;;2.60;0.70;;;17.10;99.90;;;;;;5052529;28;20209;-59
2022/10/16 10:26:47;;;;;;;4.30;0.70;;;17.10;99.90;;;;;;5052226;28;20296;-63
2022/10/16 10:29:23;;;;;;;1.77;0.67;;;17.00;99.90;;;;;;5051882;28;20237;-65
2022/10/16 10:31:57;;;;;;;1.83;0.60;;;17.00;99.90;;;;;;5052032;28;20220;-63
2022/10/16 10:34:40;;;;;;;2.80;0.70;;;17.10;99.90;;;;;;5051347;28;20204;-59
2022/10/16 10:37:22;;;;;;;3.47;0.83;;;17.20;99.90;;;;;;5051795;28;20231;-60
2022/10/16 10:39:58;;;;;;;2.70;0.73;;;17.20;99.90;;;;;;5051440;28;20229;-60
2022/10/16 10:42:30;;;;;;;1.57;0.50;;;17.30;99.90;;;;;;5051733;28;20600;-60
2022/10/16 10:45:17;;;;;;;1.73;0.67;;;17.40;99.90;;;;;;5052121;28;20213;-59
2022/10/16 10:47:53;;;;;;;3.43;0.70;;;17.40;99.90;;;;;;5051669;28;20287;-60
2022/10/16 10:50:26;;;;;;;1.87;0.50;;;17.40;99.90;;;;;;5052053;28;20700;-59
2022/10/16 10:53:03;;;;;;;1.83;0.60;;;17.50;99.90;;;;;;5051737;28;20576;-60
2022/10/16 10:55:39;;;;;;;6.90;0.77;;;17.50;99.90;;;;;;5051720;28;20287;-59
2022/10/16 10:58:33;;;;;;;1.47;0.50;;;17.60;96.80;;;;;;5051985;28;20217;-58
2022/10/16 11:01:04;;;;;;;1.90;0.50;;;17.70;98.40;;;;;;5049192;28;20612;-58
2022/10/16 11:03:48;;;;;;;2.50;0.50;;;17.80;96.90;;;;;;5051339;28;20205;-59
2022/10/16 11:06:19;;;;;;;0.97;0.53;;;17.80;90.80;;;;;;5051877;28;20209;-59
2022/10/16 11:08:49;;;;;;;4.57;0.63;;;17.80;73.40;;;;;;5051856;28;20262;-55
2022/10/16 11:11:21;;;;;;;3.57;0.90;;;17.90;88.40;;;;;;5051422;28;20668;-58
2022/10/16 11:13:57;;;;;;;1.07;0.40;;;17.90;20.90;;;;;;5051816;28;20596;-59
2022/10/16 11:16:29;;;;;;;1.60;0.40;;;17.90;7.30;;;;;;5051319;28;20236;-59
2022/10/16 11:19:03;;;;;;;3.07;0.73;;;17.90;1.00;;;;;;5051570;28;20769;-59
2022/10/16 11:21:36;;;;;;;3.77;0.70;;;18.00;1.00;;;;;;5051263;28;20209;-59
2022/10/16 11:24:11;;;;;;;1.17;0.67;;;17.90;1.00;;;;;;5051881;28;20205;-54
2022/10/16 11:26:42;;;;;;;1.90;0.50;;;18.10;1.00;;;;;;5051451;28;20205;-52
2022/10/16 11:29:17;;;;;;;2.23;0.50;;;18.10;1.00;;;;;;5050966;28;20747;-60
2022/10/16 11:31:49;;;;;;;3.03;0.60;;;18.20;1.00;;;;;;5049777;28;20209;-60
2022/10/16 11:34:23;;;;;;;1.10;0.60;;;18.20;1.00;;;;;;5051401;28;20213;-58
2022/10/16 11:36:54;;;;;;;2.77;0.80;;;18.30;1.00;;;;;;5051076;28;20225;-62
2022/10/16 11:39:24;;;;;;;2.40;0.40;;;18.30;1.00;;;;;;5051527;28;20225;-62
2022/10/16 11:41:54;;;;;;;2.97;0.57;;;18.40;1.00;;;;;;5051124;28;20216;-62
2022/10/16 11:44:34;;;;;;;2.23;0.53;;;18.30;1.00;;;;;;5048599;28;20228;-61
2022/10/16 11:47:12;;;;;;;5.53;0.70;;;18.10;99.90;;;;;;5055310;28;20212;-63
2022/10/16 11:49:41;;;;;;;3.47;1.90;;;17.80;1.00;;;;;;5055569;28;20225;-63
2022/10/16 11:52:16;;;;;;;5.13;2.70;;;17.80;1.00;;;;;;5055063;28;20751;-61
2022/10/16 11:54:49;;;;;;;0.90;0.67;;;17.80;99.90;;;;;;5055090;28;20695;-63
2022/10/16 11:57:21;;;;;;;1.03;0.50;;;17.90;1.00;;;;;;5055322;28;20205;-62
2022/10/16 11:59:53;;;;;;;2.43;0.50;;;18.00;1.00;;;;;;5055450;28;20233;-60
2022/10/16 12:02:39;;;;;;;3.40;0.57;;;18.10;1.00;;;;;;5054811;28;20692;-61
2022/10/16 12:05:24;;;;;;;0.67;0.40;;;18.20;1.00;;;;;;5055114;28;20205;-63
2022/10/16 12:08:02;;;;;;;0.70;0.60;;;18.30;1.00;;;;;;5054346;28;20244;-61
2022/10/16 12:10:31;;;;;;;3.50;0.70;;;18.40;1.00;;;;;;5055010;28;20640;-64
2022/10/16 12:12:58;;;;;;;4.17;0.50;;;18.60;1.00;;;;;;5054796;28;20271;-60
2022/10/16 12:15:28;;;;;;;2.60;0.47;;;18.60;1.00;;;;;;5054643;28;20727;-60
2022/10/16 12:17:56;;;;;;;3.60;0.70;;;18.80;1.00;;;;;;5055536;28;20205;-59
2022/10/16 12:20:26;;;;;;;1.90;0.63;;;18.80;1.00;;;;;;5054661;28;20230;-60
2022/10/16 12:22:56;;;;;;;2.53;0.80;;;18.90;99.90;;;;;;5054799;28;20263;-59
2022/10/16 12:25:28;;;;;;;3.60;0.60;;;18.70;99.90;;;;;;5054568;28;20202;-60
2022/10/16 12:28:03;;;;;;;1.17;0.50;;;18.60;1.00;;;;;;5054794;28;20553;-60
2022/10/16 12:30:34;;;;;;;2.23;0.90;;;18.40;99.90;;;;;;5054423;28;20233;-60
2022/10/16 12:33:03;;;;;;;3.13;0.50;;;18.20;99.90;;;;;;5054470;28;20251;-60
2022/10/16 12:35:33;;;;;;;6.70;0.87;;;18.20;1.00;;;;;;5054554;28;20313;-59
2022/10/16 12:38:16;;;;;;;4.57;0.83;;;18.30;99.90;;;;;;5054805;28;20212;-58
2022/10/16 12:40:45;;;;;;;4.33;0.70;;;18.50;99.90;;;;;;5054253;28;20359;-59
2022/10/16 12:43:24;;;;;;;3.90;0.47;;;18.40;99.90;;;;;;5054103;28;20617;-59
2022/10/16 12:46:03;;;;;;;1.37;0.57;;;18.30;99.90;;;;;;5054412;28;20206;-59
2022/10/16 12:48:30;;;;;;;3.17;0.60;;;18.10;99.90;;;;;;5054304;28;20205;-59
2022/10/16 12:50:57;;;;;;;3.73;1.80;;;17.90;99.90;;;;;;5054193;28;20213;-58
2022/10/16 12:53:26;;;;;;;0.63;0.43;;;18.00;99.90;;;;;;5053762;28;20248;-59
2022/10/16 12:56:02;;;;;;;2.00;0.63;;;18.00;99.90;;;;;;5054121;28;20221;-59
2022/10/16 12:58:55;;;;;;;2.07;0.60;;;17.90;99.90;;;;;;5052746;28;20209;-59
2022/10/16 13:01:35;;;;;;;1.00;0.40;;;17.90;99.90;;;;;;5052543;28;20263;-59